sensor_id;sensor_type;location;lat;lon;timestamp;temperature;humidity
22153;DHT22;11242;50.536;12.688;2023-02-03T06:25:29;3.70;99.90
22153;DHT22;11242;50.536;12.688;2023-02-03T06:27:57;3.80;99.90
22153;DHT22;11242;50.536;12.688;2023-02-03T06:30:23;3.80;99.90
22153;DHT22;11242;50.536;12.688;2023-02-03T06:32:49;3.80;99.90
22153;DHT22;11242;50.536;12.688;2023-02-03T06:35:15;3.90;99.90
22153;DHT22;11242;50.536;12.688;2023-02-03T06:37:40;3.90;99.90
22153;DHT22;11242;50.536;12.688;2023-02-03T06:40:06;3.90;99.90
22153;DHT22;11242;50.536;12.688;2023-02-03T06:42:32;3.90;99.90
22153;DHT22;11242;50.536;12.688;2023-02-03T06:44:58;3.90;99.90
22153;DHT22;11242;50.536;12.688;2023-02-03T06:47:23;3.90;99.90
22153;DHT22;11242;50.536;12.688;2023-02-03T06:49:49;3.80;99.90
22153;DHT22;11242;50.536;12.688;2023-02-03T06:52:16;3.80;99.90
22153;DHT22;11242;50.536;12.688;2023-02-03T06:54:41;3.90;99.90
22153;DHT22;11242;50.536;12.688;2023-02-03T06:57:07;3.90;99.90
22153;DHT22;11242;50.536;12.688;2023-02-03T06:59:32;3.90;99.90
22153;DHT22;11242;50.536;12.688;2023-02-03T07:01:58;3.90;99.90
22153;DHT22;11242;50.536;12.688;2023-02-03T07:04:24;3.80;99.90
22153;DHT22;11242;50.536;12.688;2023-02-03T07:06:52;3.80;99.90
22153;DHT22;11242;50.536;12.688;2023-02-03T07:09:18;3.80;99.90
22153;DHT22;11242;50.536;12.688;2023-02-03T07:11:43;3.80;99.90
22153;DHT22;11242;50.536;12.688;2023-02-03T07:14:09;3.90;99.90
22153;DHT22;11242;50.536;12.688;2023-02-03T07:16:35;3.90;99.90
22153;DHT22;11242;50.536;12.688;2023-02-03T07:19:02;4.00;99.90
22153;DHT22;11242;50.536;12.688;2023-02-03T07:21:28;4.00;99.90
22153;DHT22;11242;50.536;12.688;2023-02-03T07:23:53;4.00;99.90
22153;DHT22;11242;50.536;12.688;2023-02-03T07:26:19;4.00;99.90
22153;DHT22;11242;50.536;12.688;2023-02-03T07:28:47;4.00;99.90
22153;DHT22;11242;50.536;12.688;2023-02-03T07:31:13;4.00;99.90
22153;DHT22;11242;50.536;12.688;2023-02-03T07:33:39;4.10;99.90
22153;DHT22;11242;50.536;12.688;2023-02-03T07:36:05;4.10;99.90
22153;DHT22;11242;50.536;12.688;2023-02-03T07:38:31;4.20;99.90
22153;DHT22;11242;50.536;12.688;2023-02-03T07:40:57;4.20;99.90
22153;DHT22;11242;50.536;12.688;2023-02-03T07:43:23;4.20;99.90
22153;DHT22;11242;50.536;12.688;2023-02-03T07:45:49;4.20;99.90
22153;DHT22;11242;50.536;12.688;2023-02-03T07:48:14;4.20;99.90
22153;DHT22;11242;50.536;12.688;2023-02-03T07:50:40;4.20;99.90
22153;DHT22;11242;50.536;12.688;2023-02-03T07:53:06;4.20;99.90
22153;DHT22;11242;50.536;12.688;2023-02-03T07:55:36;4.20;99.90
22153;DHT22;11242;50.536;12.688;2023-02-03T07:58:02;4.20;99.90
22153;DHT22;11242;50.536;12.688;2023-02-03T08:00:27;4.20;99.90
22153;DHT22;11242;50.536;12.688;2023-02-03T08:02:53;4.20;99.90
22153;DHT22;11242;50.536;12.688;2023-02-03T08:05:19;4.20;99.90
22153;DHT22;11242;50.536;12.688;2023-02-03T08:07:45;4.20;99.90
22153;DHT22;11242;50.536;12.688;2023-02-03T08:10:12;4.20;99.90
22153;DHT22;11242;50.536;12.688;2023-02-03T08:12:38;4.20;99.90
22153;DHT22;11242;50.536;12.688;2023-02-03T08:15:05;4.20;99.90
22153;DHT22;11242;50.536;12.688;2023-02-03T08:17:30;4.20;99.90
22153;DHT22;11242;50.536;12.688;2023-02-03T08:19:58;4.20;99.90
22153;DHT22;11242;50.536;12.688;2023-02-03T08:22:23;4.30;99.90
22153;DHT22;11242;50.536;12.688;2023-02-03T08:24:49;4.30;99.90
22153;DHT22;11242;50.536;12.688;2023-02-03T08:27:17;4.30;99.90
22153;DHT22;11242;50.536;12.688;2023-02-03T08:29:44;4.30;99.90
22153;DHT22;11242;50.536;12.688;2023-02-03T08:32:12;4.30;99.90
22153;DHT22;11242;50.536;12.688;2023-02-03T08:34:37;4.30;99.90
22153;DHT22;11242;50.536;12.688;2023-02-03T08:37:03;4.30;99.90
22153;DHT22;11242;50.536;12.688;2023-02-03T08:39:29;4.30;99.90
22153;DHT22;11242;50.536;12.688;2023-02-03T08:41:55;4.40;99.90
22153;DHT22;11242;50.536;12.688;2023-02-03T08:44:21;4.40;99.90
22153;DHT22;11242;50.536;12.688;2023-02-03T08:46:52;4.40;99.90
22153;DHT22;11242;50.536;12.688;2023-02-03T08:49:19;4.40;99.90
22153;DHT22;11242;50.536;12.688;2023-02-03T08:51:45;4.40;99.90
22153;DHT22;11242;50.536;12.688;2023-02-03T08:54:11;4.30;99.90
22153;DHT22;11242;50.536;12.688;2023-02-03T08:56:37;4.30;99.90
22153;DHT22;11242;50.536;12.688;2023-02-03T08:59:04;4.30;99.90
22153;DHT22;11242;50.536;12.688;2023-02-03T09:01:30;4.40;99.90
22153;DHT22;11242;50.536;12.688;2023-02-03T09:03:55;4.40;99.90
22153;DHT22;11242;50.536;12.688;2023-02-03T09:06:21;4.30;99.90
22153;DHT22;11242;50.536;12.688;2023-02-03T09:08:47;4.30;99.90
22153;DHT22;11242;50.536;12.688;2023-02-03T09:11:15;4.30;99.90
22153;DHT22;11242;50.536;12.688;2023-02-03T09:13:42;4.30;99.90
22153;DHT22;11242;50.536;12.688;2023-02-03T09:16:12;4.40;99.90
22153;DHT22;11242;50.536;12.688;2023-02-03T09:18:38;4.40;99.90
22153;DHT22;11242;50.536;12.688;2023-02-03T09:21:05;4.40;99.90
22153;DHT22;11242;50.536;12.688;2023-02-03T09:23:31;4.40;99.90
22153;DHT22;11242;50.536;12.688;2023-02-03T09:26:08;4.40;99.90
22153;DHT22;11242;50.536;12.688;2023-02-03T09:28:34;4.30;99.90
22153;DHT22;11242;50.536;12.688;2023-02-03T09:31:07;4.40;99.90
22153;DHT22;11242;50.536;12.688;2023-02-03T09:33:34;4.40;99.90
22153;DHT22;11242;50.536;12.688;2023-02-03T09:36:00;4.50;99.90
22153;DHT22;11242;50.536;12.688;2023-02-03T09:38:27;4.50;99.90
22153;DHT22;11242;50.536;12.688;2023-02-03T09:40:55;4.50;99.90
22153;DHT22;11242;50.536;12.688;2023-02-03T09:43:36;4.50;99.90
22153;DHT22;11242;50.536;12.688;2023-02-03T09:46:16;4.50;99.90
22153;DHT22;11242;50.536;12.688;2023-02-03T09:48:50;4.60;99.90
22153;DHT22;11242;50.536;12.688;2023-02-03T09:51:21;4.50;99.90
22153;DHT22;11242;50.536;12.688;2023-02-03T09:54:00;4.50;99.90
22153;DHT22;11242;50.536;12.688;2023-02-03T09:56:35;4.60;99.90
22153;DHT22;11242;50.536;12.688;2023-02-03T09:59:02;4.50;99.90
22153;DHT22;11242;50.536;12.688;2023-02-03T10:01:37;4.60;99.90
22153;DHT22;11242;50.536;12.688;2023-02-03T10:04:29;4.60;99.90
22153;DHT22;11242;50.536;12.688;2023-02-03T10:07:06;4.60;99.90
22153;DHT22;11242;50.536;12.688;2023-02-03T10:09:48;4.60;99.90
22153;DHT22;11242;50.536;12.688;2023-02-03T10:12:46;4.50;99.90
22153;DHT22;11242;50.536;12.688;2023-02-03T10:15:22;4.50;99.90
22153;DHT22;11242;50.536;12.688;2023-02-03T10:17:56;4.60;99.90
22153;DHT22;11242;50.536;12.688;2023-02-03T10:20:41;4.70;99.90
22153;DHT22;11242;50.536;12.688;2023-02-03T10:23:14;4.70;99.90
22153;DHT22;11242;50.536;12.688;2023-02-03T10:25:50;4.80;99.90
22153;DHT22;11242;50.536;12.688;2023-02-03T10:28:25;4.80;99.90
22153;DHT22;11242;50.536;12.688;2023-02-03T10:30:58;4.80;99.90
22153;DHT22;11242;50.536;12.688;2023-02-03T10:33:26;4.80;99.90
22153;DHT22;11242;50.536;12.688;2023-02-03T10:35:56;4.90;99.90
22153;DHT22;11242;50.536;12.688;2023-02-03T10:40:59;4.90;99.90
22153;DHT22;11242;50.536;12.688;2023-02-03T10:43:27;4.80;99.90
22153;DHT22;11242;50.536;12.688;2023-02-03T10:46:15;4.80;99.90
22153;DHT22;11242;50.536;12.688;2023-02-03T10:48:41;4.80;99.90
22153;DHT22;11242;50.536;12.688;2023-02-03T10:51:27;4.90;99.90
22153;DHT22;11242;50.536;12.688;2023-02-03T10:53:56;4.90;99.90
22153;DHT22;11242;50.536;12.688;2023-02-03T10:56:36;4.90;99.90
22153;DHT22;11242;50.536;12.688;2023-02-03T10:59:03;4.90;99.90
22153;DHT22;11242;50.536;12.688;2023-02-03T11:01:43;5.00;99.90
22153;DHT22;11242;50.536;12.688;2023-02-03T11:04:30;5.00;99.90
22153;DHT22;11242;50.536;12.688;2023-02-03T11:06:57;4.90;99.90
22153;DHT22;11242;50.536;12.688;2023-02-03T11:09:37;4.80;99.90
22153;DHT22;11242;50.536;12.688;2023-02-03T11:12:08;4.70;99.90
22153;DHT22;11242;50.536;12.688;2023-02-03T11:14:38;4.70;99.90
22153;DHT22;11242;50.536;12.688;2023-02-03T11:17:13;4.70;99.90
22153;DHT22;11242;50.536;12.688;2023-02-03T11:19:43;4.70;99.90
22153;DHT22;11242;50.536;12.688;2023-02-03T11:22:09;4.70;99.90
22153;DHT22;11242;50.536;12.688;2023-02-03T11:24:39;4.70;99.90
22153;DHT22;11242;50.536;12.688;2023-02-03T11:27:09;4.70;99.90
22153;DHT22;11242;50.536;12.688;2023-02-03T11:29:40;4.60;99.90
22153;DHT22;11242;50.536;12.688;2023-02-03T11:32:32;4.50;99.90
22153;DHT22;11242;50.536;12.688;2023-02-03T11:35:03;4.50;99.90
22153;DHT22;11242;50.536;12.688;2023-02-03T11:37:40;4.60;99.90
22153;DHT22;11242;50.536;12.688;2023-02-03T11:42:35;4.60;99.90
22153;DHT22;11242;50.536;12.688;2023-02-03T11:47:47;4.60;99.90
22153;DHT22;11242;50.536;12.688;2023-02-03T11:50:33;4.60;99.90
22153;DHT22;11242;50.536;12.688;2023-02-03T12:01:23;4.50;99.90
22153;DHT22;11242;50.536;12.688;2023-02-03T12:10:07;4.50;99.90
22153;DHT22;11242;50.536;12.688;2023-02-03T12:12:43;4.50;99.90
22153;DHT22;11242;50.536;12.688;2023-02-03T12:18:27;4.50;99.90
22153;DHT22;11242;50.536;12.688;2023-02-03T12:26:33;4.50;99.90
22153;DHT22;11242;50.536;12.688;2023-02-03T12:29:09;4.40;99.90
22153;DHT22;11242;50.536;12.688;2023-02-03T12:34:38;4.40;99.90
22153;DHT22;11242;50.536;12.688;2023-02-03T12:37:13;4.40;99.90
22153;DHT22;11242;50.536;12.688;2023-02-03T12:45:00;4.40;99.90
22153;DHT22;11242;50.536;12.688;2023-02-03T12:47:33;4.40;99.90
22153;DHT22;11242;50.536;12.688;2023-02-03T12:50:21;4.40;99.90
22153;DHT22;11242;50.536;12.688;2023-02-03T12:53:13;4.40;99.90
22153;DHT22;11242;50.536;12.688;2023-02-03T13:01:17;4.40;99.90
22153;DHT22;11242;50.536;12.688;2023-02-03T13:03:49;4.40;99.90
22153;DHT22;11242;50.536;12.688;2023-02-03T13:06:23;4.40;99.90
22153;DHT22;11242;50.536;12.688;2023-02-03T13:11:53;4.40;99.90
22153;DHT22;11242;50.536;12.688;2023-02-03T13:14:22;4.40;99.90
22153;DHT22;11242;50.536;12.688;2023-02-03T13:16:52;4.40;99.90
22153;DHT22;11242;50.536;12.688;2023-02-03T13:19:21;4.40;99.90
22153;DHT22;11242;50.536;12.688;2023-02-03T13:21:49;4.50;99.90
22153;DHT22;11242;50.536;12.688;2023-02-03T13:24:15;4.50;99.90
22153;DHT22;11242;50.536;12.688;2023-02-03T13:26:54;4.50;99.90
22153;DHT22;11242;50.536;12.688;2023-02-03T13:29:41;4.40;99.90
22153;DHT22;11242;50.536;12.688;2023-02-03T13:35:20;4.50;99.90
22153;DHT22;11242;50.536;12.688;2023-02-03T13:38:02;4.50;99.90
22153;DHT22;11242;50.536;12.688;2023-02-03T13:40:53;4.60;99.90
22153;DHT22;11242;50.536;12.688;2023-02-03T13:43:34;4.60;99.90
22153;DHT22;11242;50.536;12.688;2023-02-03T13:46:01;4.60;99.90
22153;DHT22;11242;50.536;12.688;2023-02-03T13:48:31;4.60;99.90
22153;DHT22;11242;50.536;12.688;2023-02-03T13:51:06;4.60;99.90
22153;DHT22;11242;50.536;12.688;2023-02-03T13:53:35;4.50;99.90
22153;DHT22;11242;50.536;12.688;2023-02-03T13:56:04;4.50;99.90
22153;DHT22;11242;50.536;12.688;2023-02-03T13:58:32;4.60;99.90
22153;DHT22;11242;50.536;12.688;2023-02-03T14:01:26;4.60;99.90
22153;DHT22;11242;50.536;12.688;2023-02-03T14:03:52;4.60;99.90
22153;DHT22;11242;50.536;12.688;2023-02-03T14:11:50;4.60;99.90
22153;DHT22;11242;50.536;12.688;2023-02-03T14:16:50;4.70;99.90
22153;DHT22;11242;50.536;12.688;2023-02-03T14:21:59;4.70;99.90
22153;DHT22;11242;50.536;12.688;2023-02-03T14:26:59;4.40;99.90
22153;DHT22;11242;50.536;12.688;2023-02-03T14:29:27;4.40;99.90
22153;DHT22;11242;50.536;12.688;2023-02-03T14:32:00;4.50;99.90
22153;DHT22;11242;50.536;12.688;2023-02-03T14:37:17;4.50;99.90
22153;DHT22;11242;50.536;12.688;2023-02-03T14:40:22;4.50;99.90
22153;DHT22;11242;50.536;12.688;2023-02-03T14:43:26;4.50;99.90
22153;DHT22;11242;50.536;12.688;2023-02-03T14:46:09;4.50;99.90
22153;DHT22;11242;50.536;12.688;2023-02-03T14:54:18;4.50;99.90
22153;DHT22;11242;50.536;12.688;2023-02-03T15:00:04;4.40;99.90
22153;DHT22;11242;50.536;12.688;2023-02-03T15:02:31;4.40;99.90
22153;DHT22;11242;50.536;12.688;2023-02-03T15:07:48;4.40;99.90
22153;DHT22;11242;50.536;12.688;2023-02-03T15:10:21;4.30;99.90
22153;DHT22;11242;50.536;12.688;2023-02-03T15:12:49;4.40;99.90
22153;DHT22;11242;50.536;12.688;2023-02-03T15:15:18;4.40;99.90
22153;DHT22;11242;50.536;12.688;2023-02-03T15:17:45;4.30;99.90
22153;DHT22;11242;50.536;12.688;2023-02-03T15:20:37;4.30;99.90
22153;DHT22;11242;50.536;12.688;2023-02-03T15:23:26;4.30;99.90
22153;DHT22;11242;50.536;12.688;2023-02-03T15:26:00;4.20;99.90
22153;DHT22;11242;50.536;12.688;2023-02-03T15:28:28;4.30;99.90
22153;DHT22;11242;50.536;12.688;2023-02-03T15:30:58;4.30;99.90
22153;DHT22;11242;50.536;12.688;2023-02-03T15:33:25;4.30;99.90
22153;DHT22;11242;50.536;12.688;2023-02-03T15:36:43;4.20;99.90
22153;DHT22;11242;50.536;12.688;2023-02-03T15:39:13;4.20;99.90
22153;DHT22;11242;50.536;12.688;2023-02-03T15:41:40;4.10;99.90
22153;DHT22;11242;50.536;12.688;2023-02-03T15:44:15;4.10;99.90
22153;DHT22;11242;50.536;12.688;2023-02-03T15:46:44;4.10;99.90
22153;DHT22;11242;50.536;12.688;2023-02-03T15:49:18;4.10;99.90
22153;DHT22;11242;50.536;12.688;2023-02-03T15:51:57;4.10;99.90
22153;DHT22;11242;50.536;12.688;2023-02-03T15:54:30;4.00;99.90
22153;DHT22;11242;50.536;12.688;2023-02-03T15:57:02;4.10;99.90
22153;DHT22;11242;50.536;12.688;2023-02-03T15:59:40;4.10;99.90
22153;DHT22;11242;50.536;12.688;2023-02-03T16:02:33;4.10;99.90
22153;DHT22;11242;50.536;12.688;2023-02-03T16:05:28;4.10;99.90
22153;DHT22;11242;50.536;12.688;2023-02-03T16:07:54;4.10;99.90
22153;DHT22;11242;50.536;12.688;2023-02-03T16:10:32;4.10;99.90
22153;DHT22;11242;50.536;12.688;2023-02-03T16:13:22;4.10;99.90
22153;DHT22;11242;50.536;12.688;2023-02-03T16:16:11;4.10;99.90
22153;DHT22;11242;50.536;12.688;2023-02-03T16:18:38;4.10;99.90
22153;DHT22;11242;50.536;12.688;2023-02-03T16:21:04;4.20;99.90
22153;DHT22;11242;50.536;12.688;2023-02-03T16:23:30;4.10;99.90
22153;DHT22;11242;50.536;12.688;2023-02-03T16:26:16;4.10;99.90
22153;DHT22;11242;50.536;12.688;2023-02-03T16:28:43;4.10;99.90
22153;DHT22;11242;50.536;12.688;2023-02-03T16:31:27;4.10;99.90
22153;DHT22;11242;50.536;12.688;2023-02-03T16:34:13;4.10;99.90
22153;DHT22;11242;50.536;12.688;2023-02-03T16:36:58;4.10;99.90
22153;DHT22;11242;50.536;12.688;2023-02-03T16:39:42;4.10;99.90
22153;DHT22;11242;50.536;12.688;2023-02-03T16:42:38;4.10;99.90
22153;DHT22;11242;50.536;12.688;2023-02-03T16:45:23;4.00;99.90
22153;DHT22;11242;50.536;12.688;2023-02-03T16:48:11;4.00;99.90
22153;DHT22;11242;50.536;12.688;2023-02-03T16:50:56;4.00;99.90
22153;DHT22;11242;50.536;12.688;2023-02-03T16:53:29;4.00;99.90
22153;DHT22;11242;50.536;12.688;2023-02-03T16:55:56;4.00;99.90
22153;DHT22;11242;50.536;12.688;2023-02-03T16:58:22;4.00;99.90
22153;DHT22;11242;50.536;12.688;2023-02-03T17:00:50;4.00;99.90
22153;DHT22;11242;50.536;12.688;2023-02-03T17:03:19;4.10;99.90
22153;DHT22;11242;50.536;12.688;2023-02-03T17:05:45;4.00;99.90
22153;DHT22;11242;50.536;12.688;2023-02-03T17:08:12;4.10;99.90
22153;DHT22;11242;50.536;12.688;2023-02-03T17:10:40;4.00;99.90
22153;DHT22;11242;50.536;12.688;2023-02-03T17:13:06;4.10;99.90
22153;DHT22;11242;50.536;12.688;2023-02-03T17:15:34;4.10;99.90
22153;DHT22;11242;50.536;12.688;2023-02-03T17:18:03;4.00;99.90
22153;DHT22;11242;50.536;12.688;2023-02-03T17:20:28;4.00;99.90
22153;DHT22;11242;50.536;12.688;2023-02-03T17:22:54;4.00;99.90
22153;DHT22;11242;50.536;12.688;2023-02-03T17:25:20;4.00;99.90
22153;DHT22;11242;50.536;12.688;2023-02-03T17:27:46;4.00;99.90
22153;DHT22;11242;50.536;12.688;2023-02-03T17:30:13;4.00;99.90
22153;DHT22;11242;50.536;12.688;2023-02-03T17:32:39;4.10;99.90
22153;DHT22;11242;50.536;12.688;2023-02-03T17:35:04;4.00;99.90
22153;DHT22;11242;50.536;12.688;2023-02-03T17:37:34;4.00;99.90
22153;DHT22;11242;50.536;12.688;2023-02-03T17:40:00;4.00;99.90
22153;DHT22;11242;50.536;12.688;2023-02-03T17:42:26;4.00;99.90
22153;DHT22;11242;50.536;12.688;2023-02-03T17:44:51;4.00;99.90
22153;DHT22;11242;50.536;12.688;2023-02-03T17:47:17;4.10;99.90
22153;DHT22;11242;50.536;12.688;2023-02-03T17:49:42;4.10;99.90
22153;DHT22;11242;50.536;12.688;2023-02-03T17:52:12;4.00;99.90
22153;DHT22;11242;50.536;12.688;2023-02-03T17:54:38;4.00;99.90
22153;DHT22;11242;50.536;12.688;2023-02-03T17:57:03;4.10;99.90
22153;DHT22;11242;50.536;12.688;2023-02-03T17:59:30;4.00;99.90
22153;DHT22;11242;50.536;12.688;2023-02-03T18:01:55;4.10;99.90
22153;DHT22;11242;50.536;12.688;2023-02-03T18:04:21;4.10;99.90
22153;DHT22;11242;50.536;12.688;2023-02-03T18:06:46;4.10;99.90
22153;DHT22;11242;50.536;12.688;2023-02-03T18:09:12;4.10;99.90
22153;DHT22;11242;50.536;12.688;2023-02-03T18:11:41;4.10;99.90
22153;DHT22;11242;50.536;12.688;2023-02-03T18:14:08;4.10;99.90
22153;DHT22;11242;50.536;12.688;2023-02-03T18:16:35;4.10;99.90
22153;DHT22;11242;50.536;12.688;2023-02-03T18:19:03;3.90;99.90
22153;DHT22;11242;50.536;12.688;2023-02-03T18:21:29;3.80;99.90
22153;DHT22;11242;50.536;12.688;2023-02-03T18:23:57;3.70;99.90
22153;DHT22;11242;50.536;12.688;2023-02-03T18:26:29;3.70;99.90
22153;DHT22;11242;50.536;12.688;2023-02-03T18:28:57;3.60;99.90
22153;DHT22;11242;50.536;12.688;2023-02-03T18:31:22;3.70;99.90
22153;DHT22;11242;50.536;12.688;2023-02-03T18:33:50;3.70;99.90
22153;DHT22;11242;50.536;12.688;2023-02-03T18:36:16;3.70;99.90
22153;DHT22;11242;50.536;12.688;2023-02-03T18:38:43;3.70;99.90
22153;DHT22;11242;50.536;12.688;2023-02-03T18:41:14;3.70;99.90
22153;DHT22;11242;50.536;12.688;2023-02-03T18:43:40;3.80;99.90
22153;DHT22;11242;50.536;12.688;2023-02-03T18:46:07;3.80;99.90
22153;DHT22;11242;50.536;12.688;2023-02-03T18:48:33;3.80;99.90
22153;DHT22;11242;50.536;12.688;2023-02-03T18:50:59;3.80;99.90
22153;DHT22;11242;50.536;12.688;2023-02-03T18:53:24;3.80;99.90
22153;DHT22;11242;50.536;12.688;2023-02-03T18:55:50;3.80;99.90
22153;DHT22;11242;50.536;12.688;2023-02-03T18:58:16;3.80;99.90
22153;DHT22;11242;50.536;12.688;2023-02-03T19:00:42;3.80;99.90
22153;DHT22;11242;50.536;12.688;2023-02-03T19:03:07;3.80;99.90
22153;DHT22;11242;50.536;12.688;2023-02-03T19:05:34;3.80;99.90
22153;DHT22;11242;50.536;12.688;2023-02-03T19:07:59;3.80;99.90
22153;DHT22;11242;50.536;12.688;2023-02-03T19:10:25;3.90;99.90
22153;DHT22;11242;50.536;12.688;2023-02-03T19:12:50;3.90;99.90
22153;DHT22;11242;50.536;12.688;2023-02-03T19:15:16;3.90;99.90
22153;DHT22;11242;50.536;12.688;2023-02-03T19:17:43;3.90;99.90
22153;DHT22;11242;50.536;12.688;2023-02-03T19:20:09;3.80;99.90
22153;DHT22;11242;50.536;12.688;2023-02-03T19:22:35;3.90;99.90
22153;DHT22;11242;50.536;12.688;2023-02-03T19:25:00;3.80;99.90
22153;DHT22;11242;50.536;12.688;2023-02-03T19:27:26;3.80;99.90
22153;DHT22;11242;50.536;12.688;2023-02-03T19:29:52;3.70;99.90
22153;DHT22;11242;50.536;12.688;2023-02-03T19:32:17;3.70;99.90
22153;DHT22;11242;50.536;12.688;2023-02-03T19:34:43;3.70;99.90
22153;DHT22;11242;50.536;12.688;2023-02-03T19:37:08;3.70;99.90
22153;DHT22;11242;50.536;12.688;2023-02-03T19:39:34;3.70;99.90
22153;DHT22;11242;50.536;12.688;2023-02-03T19:42:00;3.70;99.90
22153;DHT22;11242;50.536;12.688;2023-02-03T19:44:26;3.70;99.90
22153;DHT22;11242;50.536;12.688;2023-02-03T19:46:52;3.70;99.90
22153;DHT22;11242;50.536;12.688;2023-02-03T19:49:18;3.70;99.90
22153;DHT22;11242;50.536;12.688;2023-02-03T19:51:44;3.70;99.90
22153;DHT22;11242;50.536;12.688;2023-02-03T19:54:11;3.70;99.90
22153;DHT22;11242;50.536;12.688;2023-02-03T19:56:37;3.60;99.90
22153;DHT22;11242;50.536;12.688;2023-02-03T19:59:03;3.70;99.90
22153;DHT22;11242;50.536;12.688;2023-02-03T20:01:29;3.70;99.90
22153;DHT22;11242;50.536;12.688;2023-02-03T20:03:54;3.60;99.90
22153;DHT22;11242;50.536;12.688;2023-02-03T20:06:20;3.70;99.90
22153;DHT22;11242;50.536;12.688;2023-02-03T20:08:45;3.70;99.90
22153;DHT22;11242;50.536;12.688;2023-02-03T20:11:11;3.70;99.90
22153;DHT22;11242;50.536;12.688;2023-02-03T20:13:37;3.70;99.90
22153;DHT22;11242;50.536;12.688;2023-02-03T20:16:05;3.70;99.90
22153;DHT22;11242;50.536;12.688;2023-02-03T20:18:30;3.70;99.90
22153;DHT22;11242;50.536;12.688;2023-02-03T20:20:56;3.70;99.90
22153;DHT22;11242;50.536;12.688;2023-02-03T20:23:22;3.70;99.90
22153;DHT22;11242;50.536;12.688;2023-02-03T20:25:51;3.70;99.90
22153;DHT22;11242;50.536;12.688;2023-02-03T20:28:21;3.70;99.90
22153;DHT22;11242;50.536;12.688;2023-02-03T20:30:50;3.70;99.90
22153;DHT22;11242;50.536;12.688;2023-02-03T20:33:16;3.70;99.90
22153;DHT22;11242;50.536;12.688;2023-02-03T20:35:41;3.60;99.90
22153;DHT22;11242;50.536;12.688;2023-02-03T20:38:07;3.60;99.90
22153;DHT22;11242;50.536;12.688;2023-02-03T20:40:32;3.60;99.90
22153;DHT22;11242;50.536;12.688;2023-02-03T20:42:58;3.60;99.90
22153;DHT22;11242;50.536;12.688;2023-02-03T20:45:30;3.70;99.90
22153;DHT22;11242;50.536;12.688;2023-02-03T20:47:56;3.70;99.90
22153;DHT22;11242;50.536;12.688;2023-02-03T20:50:23;3.60;99.90
22153;DHT22;11242;50.536;12.688;2023-02-03T20:52:50;3.60;99.90
22153;DHT22;11242;50.536;12.688;2023-02-03T20:55:18;3.60;99.90
22153;DHT22;11242;50.536;12.688;2023-02-03T20:57:45;3.60;99.90
22153;DHT22;11242;50.536;12.688;2023-02-03T21:00:18;3.60;99.90
22153;DHT22;11242;50.536;12.688;2023-02-03T21:02:45;3.50;99.90
22153;DHT22;11242;50.536;12.688;2023-02-03T21:05:35;3.50;99.90
22153;DHT22;11242;50.536;12.688;2023-02-03T21:08:15;3.50;99.90
22153;DHT22;11242;50.536;12.688;2023-02-03T21:10:42;3.40;99.90
22153;DHT22;11242;50.536;12.688;2023-02-03T21:13:21;3.30;99.90
22153;DHT22;11242;50.536;12.688;2023-02-03T21:15:49;3.30;99.90
22153;DHT22;11242;50.536;12.688;2023-02-03T21:20:57;3.30;99.90
22153;DHT22;11242;50.536;12.688;2023-02-03T21:23:25;3.30;99.90
22153;DHT22;11242;50.536;12.688;2023-02-03T21:25:52;3.30;99.90
22153;DHT22;11242;50.536;12.688;2023-02-03T21:28:25;3.30;99.90
22153;DHT22;11242;50.536;12.688;2023-02-03T21:30:52;3.40;99.90
22153;DHT22;11242;50.536;12.688;2023-02-03T21:33:47;3.40;99.90
22153;DHT22;11242;50.536;12.688;2023-02-03T21:36:24;3.40;99.90
22153;DHT22;11242;50.536;12.688;2023-02-03T21:38:52;3.40;99.90
22153;DHT22;11242;50.536;12.688;2023-02-03T21:41:21;3.40;99.90
22153;DHT22;11242;50.536;12.688;2023-02-03T21:43:49;3.40;99.90
22153;DHT22;11242;50.536;12.688;2023-02-03T21:46:26;3.40;99.90
22153;DHT22;11242;50.536;12.688;2023-02-03T21:48:54;3.40;99.90
22153;DHT22;11242;50.536;12.688;2023-02-03T21:51:22;3.40;99.90
22153;DHT22;11242;50.536;12.688;2023-02-03T21:53:56;3.40;99.90
22153;DHT22;11242;50.536;12.688;2023-02-03T21:56:28;3.40;99.90
22153;DHT22;11242;50.536;12.688;2023-02-03T21:58:55;3.40;99.90
22153;DHT22;11242;50.536;12.688;2023-02-03T22:01:26;3.20;99.90
22153;DHT22;11242;50.536;12.688;2023-02-03T22:03:57;3.10;99.90
22153;DHT22;11242;50.536;12.688;2023-02-03T22:06:45;3.00;99.90
22153;DHT22;11242;50.536;12.688;2023-02-03T22:09:14;2.90;99.90
22153;DHT22;11242;50.536;12.688;2023-02-03T22:11:40;2.90;99.90
22153;DHT22;11242;50.536;12.688;2023-02-03T22:14:05;2.80;99.90
22153;DHT22;11242;50.536;12.688;2023-02-03T22:16:31;2.80;99.90
22153;DHT22;11242;50.536;12.688;2023-02-03T22:18:57;2.80;99.90
22153;DHT22;11242;50.536;12.688;2023-02-03T22:21:22;2.70;99.90
22153;DHT22;11242;50.536;12.688;2023-02-03T22:23:48;2.70;99.90
22153;DHT22;11242;50.536;12.688;2023-02-03T22:26:14;2.70;99.90
22153;DHT22;11242;50.536;12.688;2023-02-03T22:28:40;2.70;99.90
22153;DHT22;11242;50.536;12.688;2023-02-03T22:31:07;2.60;99.90
22153;DHT22;11242;50.536;12.688;2023-02-03T22:33:34;2.70;99.90
22153;DHT22;11242;50.536;12.688;2023-02-03T22:36:00;2.60;99.90
22153;DHT22;11242;50.536;12.688;2023-02-03T22:38:28;2.60;99.90
22153;DHT22;11242;50.536;12.688;2023-02-03T22:40:53;2.60;99.90
22153;DHT22;11242;50.536;12.688;2023-02-03T22:43:19;2.50;99.90
22153;DHT22;11242;50.536;12.688;2023-02-03T22:45:45;2.50;99.90
22153;DHT22;11242;50.536;12.688;2023-02-03T22:48:10;2.50;99.90
22153;DHT22;11242;50.536;12.688;2023-02-03T22:50:36;2.50;99.90
22153;DHT22;11242;50.536;12.688;2023-02-03T22:53:03;2.50;99.90
22153;DHT22;11242;50.536;12.688;2023-02-03T22:55:29;2.50;99.90
22153;DHT22;11242;50.536;12.688;2023-02-03T22:57:55;2.50;99.90
22153;DHT22;11242;50.536;12.688;2023-02-03T23:00:23;2.50;99.90
22153;DHT22;11242;50.536;12.688;2023-02-03T23:02:49;2.60;99.90
22153;DHT22;11242;50.536;12.688;2023-02-03T23:05:16;2.50;99.90
22153;DHT22;11242;50.536;12.688;2023-02-03T23:07:46;2.50;99.90
22153;DHT22;11242;50.536;12.688;2023-02-03T23:10:20;2.50;99.90
22153;DHT22;11242;50.536;12.688;2023-02-03T23:12:46;2.50;99.90
22153;DHT22;11242;50.536;12.688;2023-02-03T23:15:13;2.50;99.90
22153;DHT22;11242;50.536;12.688;2023-02-03T23:17:39;2.50;99.90
22153;DHT22;11242;50.536;12.688;2023-02-03T23:20:05;2.40;99.90
22153;DHT22;11242;50.536;12.688;2023-02-03T23:22:31;2.50;99.90
22153;DHT22;11242;50.536;12.688;2023-02-03T23:24:57;2.50;99.90
22153;DHT22;11242;50.536;12.688;2023-02-03T23:27:25;2.50;99.90
22153;DHT22;11242;50.536;12.688;2023-02-03T23:29:50;2.50;99.90
22153;DHT22;11242;50.536;12.688;2023-02-03T23:32:16;2.50;99.90
22153;DHT22;11242;50.536;12.688;2023-02-03T23:34:41;2.50;99.90